Time;durP1;ratioP1;P1;durP2;ratioP2;P2;SDS_P1;SDS_P2;PMS_P1;PMS_P2;Temp;Humidity;BMP_temperature;BMP_pressure;BME280_temperature;BME280_humidity;BME280_pressure;Samples;Min_cycle;Max_cycle;Signal;HPM_P1;HPM_P2
2023/05/14 00:03:42;;;;;;;2.60;1.48;;;;;;;;;;9982356;29;20046;-88
2023/05/14 00:08:46;;;;;;;1.70;1.40;;;;;;;;;;9984420;29;20129;-87
2023/05/14 00:13:50;;;;;;;3.90;1.48;;;;;;;;;;9989216;29;20053;-88
2023/05/14 00:18:55;;;;;;;3.45;1.60;;;;;;;;;;9990434;29;20081;-87
2023/05/14 00:24:02;;;;;;;1.52;1.40;;;;;;;;;;9990706;29;20060;-87
2023/05/14 00:29:06;;;;;;;2.42;1.40;;;;;;;;;;9986224;29;20058;-88
2023/05/14 00:34:13;;;;;;;1.17;1.10;;;;;;;;;;9990629;29;20073;-87
2023/05/14 00:39:18;;;;;;;2.47;1.65;;;;;;;;;;9986480;29;20046;-88
2023/05/14 00:44:21;;;;;;;2.58;1.40;;;;;;;;;;9988184;29;20052;-88
2023/05/14 00:49:29;;;;;;;2.33;1.55;;;;;;;;;;9987267;29;20052;-87
2023/05/14 00:54:36;;;;;;;1.95;1.50;;;;;;;;;;9989913;29;20045;-87
2023/05/14 00:59:41;;;;;;;1.67;1.58;;;;;;;;;;9989982;29;20644;-87
2023/05/14 01:04:46;;;;;;;1.88;1.30;;;;;;;;;;9990515;29;20091;-88
2023/05/14 01:09:56;;;;;;;2.47;1.70;;;;;;;;;;9985212;29;20054;-88
2023/05/14 01:15:09;;;;;;;1.75;1.23;;;;;;;;;;9990489;29;20272;-88
2023/05/14 01:20:17;;;;;;;1.67;1.15;;;;;;;;;;9991659;29;20129;-91
2023/05/14 01:25:29;;;;;;;1.60;1.30;;;;;;;;;;10009591;29;20069;-93
2023/05/14 01:30:38;;;;;;;1.63;1.27;;;;;;;;;;9995044;29;20068;-88
2023/05/14 01:35:42;;;;;;;1.42;1.33;;;;;;;;;;9998872;29;20518;-89
2023/05/14 01:40:49;;;;;;;1.88;1.50;;;;;;;;;;9992389;29;20477;-89
2023/05/14 01:45:55;;;;;;;1.70;1.38;;;;;;;;;;9995825;29;20054;-90
2023/05/14 01:51:17;;;;;;;1.42;1.17;;;;;;;;;;9994089;29;20057;-93
2023/05/14 01:56:34;;;;;;;2.67;1.20;;;;;;;;;;9974845;29;20498;-89
2023/05/14 02:01:45;;;;;;;1.85;1.30;;;;;;;;;;9986962;29;20054;-87
2023/05/14 02:06:53;;;;;;;1.42;1.33;;;;;;;;;;9986815;29;20042;-87
2023/05/14 02:12:03;;;;;;;1.52;1.42;;;;;;;;;;9976987;29;20821;-87
2023/05/14 02:17:10;;;;;;;3.53;1.70;;;;;;;;;;9987020;29;20154;-88
2023/05/14 02:22:14;;;;;;;1.75;1.27;;;;;;;;;;9985081;29;20355;-88
2023/05/14 02:27:39;;;;;;;1.33;1.20;;;;;;;;;;9975868;29;20054;-87
2023/05/14 02:32:44;;;;;;;1.70;1.27;;;;;;;;;;9982803;29;20054;-88
2023/05/14 02:37:51;;;;;;;2.65;1.50;;;;;;;;;;9985819;29;20050;-88
2023/05/14 02:43:00;;;;;;;3.45;1.40;;;;;;;;;;10000038;29;20510;-87
2023/05/14 02:48:06;;;;;;;5.05;1.52;;;;;;;;;;9985343;29;20066;-87
2023/05/14 02:53:10;;;;;;;1.50;1.40;;;;;;;;;;9983652;29;20165;-88
2023/05/14 02:58:27;;;;;;;2.42;1.40;;;;;;;;;;9983840;29;20046;-87
2023/05/14 03:03:38;;;;;;;1.27;1.15;;;;;;;;;;9983534;29;20870;-88
2023/05/14 03:08:45;;;;;;;2.13;1.40;;;;;;;;;;9984619;29;20471;-87
2023/05/14 03:13:53;;;;;;;2.53;1.40;;;;;;;;;;9992933;29;20073;-87
2023/05/14 03:18:59;;;;;;;2.03;1.50;;;;;;;;;;9984168;29;20565;-88
2023/05/14 03:24:10;;;;;;;1.98;1.48;;;;;;;;;;9985763;29;20053;-88
2023/05/14 03:29:22;;;;;;;2.00;1.20;;;;;;;;;;9982808;29;20064;-89
2023/05/14 03:34:26;;;;;;;1.40;1.20;;;;;;;;;;9985071;29;20066;-88
2023/05/14 03:39:30;;;;;;;2.28;1.52;;;;;;;;;;9984059;29;20107;-88
2023/05/14 03:44:35;;;;;;;1.65;1.25;;;;;;;;;;9985290;29;20129;-87
2023/05/14 03:49:40;;;;;;;1.47;1.07;;;;;;;;;;9984117;29;20149;-87
2023/05/14 03:54:46;;;;;;;;;;;;;;;;;;9984942;29;20065;-88
2023/05/14 03:59:52;;;;;;;1.55;1.33;;;;;;;;;;9982232;29;20441;-88
2023/05/14 04:04:56;;;;;;;1.03;1.00;;;;;;;;;;9984033;29;20046;-88
2023/05/14 04:10:03;;;;;;;3.13;1.73;;;;;;;;;;9982981;29;20117;-87
2023/05/14 04:15:10;;;;;;;2.00;1.65;;;;;;;;;;9985104;29;20054;-87
2023/05/14 04:20:14;;;;;;;1.85;1.60;;;;;;;;;;9981639;29;20050;-88
2023/05/14 04:25:21;;;;;;;1.70;1.30;;;;;;;;;;9980474;29;20148;-88
2023/05/14 04:30:34;;;;;;;4.32;1.73;;;;;;;;;;9980996;29;20049;-86
2023/05/14 04:35:38;;;;;;;1.77;1.50;;;;;;;;;;9980993;29;20050;-87
2023/05/14 04:40:41;;;;;;;3.03;1.27;;;;;;;;;;9975682;29;20074;-87
2023/05/14 04:45:47;;;;;;;1.45;1.20;;;;;;;;;;9983300;29;20191;-88
2023/05/14 04:50:51;;;;;;;2.03;1.37;;;;;;;;;;9988060;29;20082;-88
2023/05/14 04:55:55;;;;;;;2.67;1.20;;;;;;;;;;9985410;29;20049;-87
2023/05/14 05:01:01;;;;;;;3.08;1.55;;;;;;;;;;9989387;29;20110;-87
2023/05/14 05:06:06;;;;;;;4.88;1.52;;;;;;;;;;10048304;23;20059;-82
2023/05/14 05:11:09;;;;;;;1.23;1.08;;;;;;;;;;10072281;29;20083;-82
2023/05/14 05:16:14;;;;;;;1.63;1.45;;;;;;;;;;10088390;29;20045;-82
2023/05/14 05:21:17;;;;;;;3.63;1.23;;;;;;;;;;10072825;29;20049;-82
2023/05/14 05:26:21;;;;;;;2.35;1.40;;;;;;;;;;10074108;29;20478;-82
2023/05/14 05:31:25;;;;;;;1.83;1.30;;;;;;;;;;10071915;29;20049;-82
2023/05/14 05:36:29;;;;;;;3.25;1.38;;;;;;;;;;10088886;29;20056;-82
2023/05/14 05:41:32;;;;;;;2.05;1.17;;;;;;;;;;10070761;29;20432;-83
2023/05/14 05:46:37;;;;;;;2.53;1.20;;;;;;;;;;10087601;29;20045;-82
2023/05/14 05:51:40;;;;;;;1.00;0.95;;;;;;;;;;10068739;29;20064;-82
2023/05/14 05:56:43;;;;;;;1.60;1.30;;;;;;;;;;10070820;29;20048;-82
2023/05/14 06:01:48;;;;;;;1.73;1.02;;;;;;;;;;10086346;29;20052;-82
2023/05/14 06:06:51;;;;;;;2.45;1.17;;;;;;;;;;10070125;29;20044;-81
2023/05/14 06:11:55;;;;;;;1.05;0.95;;;;;;;;;;10086252;29;20060;-82
2023/05/14 06:16:59;;;;;;;1.05;0.98;;;;;;;;;;10087744;29;20059;-81
2023/05/14 06:22:03;;;;;;;1.20;1.13;;;;;;;;;;10083662;29;20053;-82
2023/05/14 06:27:06;;;;;;;1.38;1.15;;;;;;;;;;10089804;29;20056;-82
2023/05/14 06:32:14;;;;;;;1.13;1.02;;;;;;;;;;10071178;29;20045;-82
2023/05/14 06:37:17;;;;;;;0.85;0.85;;;;;;;;;;10071556;29;20041;-81
2023/05/14 06:42:20;;;;;;;1.10;1.00;;;;;;;;;;10069446;29;20659;-83
2023/05/14 06:47:25;;;;;;;1.00;1.00;;;;;;;;;;10067917;29;20060;-82
2023/05/14 06:52:28;;;;;;;2.20;1.80;;;;;;;;;;10068937;29;20053;-82
2023/05/14 06:57:32;;;;;;;1.17;1.02;;;;;;;;;;10085982;29;20049;-82
2023/05/14 07:02:37;;;;;;;1.00;0.80;;;;;;;;;;10085509;29;20057;-81
2023/05/14 07:07:40;;;;;;;0.93;0.90;;;;;;;;;;10086209;29;20045;-83
2023/05/14 07:12:44;;;;;;;0.68;0.68;;;;;;;;;;10084974;29;20614;-82
2023/05/14 07:17:48;;;;;;;1.00;1.00;;;;;;;;;;10069234;29;20344;-82
2023/05/14 07:22:53;;;;;;;0.95;0.88;;;;;;;;;;10068655;29;20123;-81
2023/05/14 07:27:56;;;;;;;1.95;1.50;;;;;;;;;;10086984;29;20048;-82
2023/05/14 07:33:01;;;;;;;0.90;0.90;;;;;;;;;;10078722;29;20063;-82
2023/05/14 07:38:05;;;;;;;1.50;1.40;;;;;;;;;;10085748;29;20075;-82
2023/05/14 07:43:08;;;;;;;1.05;0.95;;;;;;;;;;10085557;29;20041;-83
2023/05/14 07:48:13;;;;;;;1.48;1.38;;;;;;;;;;10084456;29;20120;-82
2023/05/14 07:53:16;;;;;;;2.30;1.70;;;;;;;;;;10064269;29;20069;-82
2023/05/14 07:58:19;;;;;;;1.90;1.48;;;;;;;;;;10081529;29;20056;-83
2023/05/14 08:03:24;;;;;;;1.75;1.52;;;;;;;;;;10065290;29;20136;-84
2023/05/14 08:08:27;;;;;;;1.10;1.00;;;;;;;;;;10065821;29;20081;-83
2023/05/14 08:13:31;;;;;;;2.42;1.92;;;;;;;;;;10074897;29;20738;-83
2023/05/14 08:18:35;;;;;;;3.13;2.08;;;;;;;;;;10063184;29;20057;-83
2023/05/14 08:23:39;;;;;;;2.20;1.48;;;;;;;;;;10063520;29;20064;-83
2023/05/14 08:28:42;;;;;;;1.92;1.70;;;;;;;;;;10061653;29;20441;-83
2023/05/14 08:33:47;;;;;;;1.70;1.60;;;;;;;;;;10070834;29;20045;-84
2023/05/14 08:38:50;;;;;;;3.03;2.42;;;;;;;;;;10069226;29;20052;-83
2023/05/14 08:44:08;;;;;;;1.70;1.60;;;;;;;;;;10074570;29;20063;-82
2023/05/14 08:49:27;;;;;;;3.03;2.40;;;;;;;;;;10087339;29;20073;-83
2023/05/14 08:54:31;;;;;;;1.75;1.63;;;;;;;;;;10074200;29;20071;-82
2023/05/14 08:59:34;;;;;;;2.58;1.40;;;;;;;;;;10090819;29;20049;-83
2023/05/14 09:04:39;;;;;;;1.90;1.10;;;;;;;;;;10087715;29;20072;-83
2023/05/14 09:09:44;;;;;;;2.88;1.20;;;;;;;;;;10070635;29;20462;-83
2023/05/14 09:14:50;;;;;;;2.28;1.50;;;;;;;;;;10076503;29;20057;-82
2023/05/14 09:19:55;;;;;;;1.00;0.90;;;;;;;;;;10065833;29;20135;-82
2023/05/14 09:25:04;;;;;;;2.00;1.55;;;;;;;;;;10079876;29;20330;-84
2023/05/14 09:30:09;;;;;;;1.70;1.23;;;;;;;;;;10078534;29;20061;-83
2023/05/14 09:35:16;;;;;;;1.50;1.40;;;;;;;;;;10066415;29;20074;-83
2023/05/14 09:40:21;;;;;;;2.28;1.70;;;;;;;;;;10069271;29;20061;-83
2023/05/14 09:45:24;;;;;;;1.77;1.20;;;;;;;;;;10045336;29;20051;-83
2023/05/14 09:50:29;;;;;;;0.98;0.98;;;;;;;;;;10055067;29;20052;-82
2023/05/14 09:55:33;;;;;;;1.55;1.08;;;;;;;;;;10051646;29;20061;-84
2023/05/14 10:00:37;;;;;;;1.27;1.17;;;;;;;;;;10056039;29;20045;-83
2023/05/14 10:05:42;;;;;;;1.83;1.50;;;;;;;;;;10045564;29;20060;-82
2023/05/14 10:10:46;;;;;;;1.00;0.90;;;;;;;;;;10063052;29;20815;-83
2023/05/14 10:15:56;;;;;;;1.38;1.23;;;;;;;;;;10055357;29;20061;-82
2023/05/14 10:21:05;;;;;;;1.58;1.30;;;;;;;;;;10063074;29;20057;-84
2023/05/14 10:26:08;;;;;;;1.42;1.10;;;;;;;;;;10085327;29;20053;-83
2023/05/14 10:31:13;;;;;;;0.80;0.80;;;;;;;;;;10086159;29;20100;-82
2023/05/14 10:36:18;;;;;;;2.30;0.80;;;;;;;;;;10076114;29;20496;-82
2023/05/14 10:41:21;;;;;;;1.10;1.00;;;;;;;;;;10066699;29;20041;-83
2023/05/14 10:46:25;;;;;;;1.88;1.10;;;;;;;;;;10067453;29;20297;-82
2023/05/14 10:51:33;;;;;;;0.80;0.80;;;;;;;;;;10068334;29;20610;-82
2023/05/14 10:56:37;;;;;;;1.90;1.00;;;;;;;;;;10070162;29;20049;-84
2023/05/14 11:01:41;;;;;;;1.15;0.98;;;;;;;;;;10085250;29;20044;-83
2023/05/14 11:06:47;;;;;;;1.83;0.95;;;;;;;;;;10070249;29;20049;-82
2023/05/14 11:11:50;;;;;;;1.33;0.85;;;;;;;;;;10085564;29;20047;-83
2023/05/14 11:16:55;;;;;;;1.13;0.90;;;;;;;;;;10067574;29;20041;-83
2023/05/14 11:22:01;;;;;;;1.13;0.80;;;;;;;;;;10069397;29;20049;-82
2023/05/14 11:27:04;;;;;;;;;;;;;;;;;;10071918;29;20047;-83
2023/05/14 11:32:07;;;;;;;1.10;1.00;;;;;;;;;;10056406;29;19927;-83
2023/05/14 11:37:15;;;;;;;0.90;0.90;;;;;;;;;;10071911;29;20093;-83
2023/05/14 11:42:19;;;;;;;1.13;1.02;;;;;;;;;;10081084;29;20065;-83
2023/05/14 11:47:23;;;;;;;0.85;0.80;;;;;;;;;;10076368;29;20077;-83
2023/05/14 11:52:27;;;;;;;0.75;0.63;;;;;;;;;;10059068;29;20057;-84
2023/05/14 11:57:31;;;;;;;1.17;0.77;;;;;;;;;;10059356;29;20060;-83
2023/05/14 12:02:35;;;;;;;0.80;0.70;;;;;;;;;;10074874;29;20048;-84
2023/05/14 12:07:40;;;;;;;1.15;0.80;;;;;;;;;;10064403;29;20679;-83
2023/05/14 12:12:47;;;;;;;0.60;0.60;;;;;;;;;;10066541;29;20181;-84
2023/05/14 12:17:51;;;;;;;0.50;0.50;;;;;;;;;;10083524;29;20469;-83
2023/05/14 12:22:56;;;;;;;1.15;0.60;;;;;;;;;;10082996;29;20112;-83
2023/05/14 12:27:59;;;;;;;0.68;0.68;;;;;;;;;;10066207;29;20390;-83
2023/05/14 12:33:02;;;;;;;0.77;0.70;;;;;;;;;;10065358;29;20064;-84
2023/05/14 12:38:07;;;;;;;0.60;0.60;;;;;;;;;;10082682;29;20055;-84
2023/05/14 12:43:10;;;;;;;1.20;1.10;;;;;;;;;;10082815;29;20060;-84
2023/05/14 12:48:14;;;;;;;0.70;0.70;;;;;;;;;;10065795;29;20049;-84
2023/05/14 12:53:18;;;;;;;0.55;0.55;;;;;;;;;;10082639;29;20049;-83
2023/05/14 12:58:21;;;;;;;0.90;0.70;;;;;;;;;;10064487;29;20667;-84
2023/05/14 13:03:25;;;;;;;0.60;0.60;;;;;;;;;;10086916;29;20509;-83
2023/05/14 13:08:30;;;;;;;0.70;0.70;;;;;;;;;;10064783;29;20064;-84
2023/05/14 13:13:33;;;;;;;1.02;0.57;;;;;;;;;;10075307;29;20069;-83
2023/05/14 13:18:36;;;;;;;0.90;0.70;;;;;;;;;;10062729;29;20576;-84
2023/05/14 13:23:41;;;;;;;0.50;0.50;;;;;;;;;;10063051;29;20410;-84
2023/05/14 13:28:44;;;;;;;0.98;0.73;;;;;;;;;;10061439;29;20049;-83
2023/05/14 13:33:47;;;;;;;0.60;0.60;;;;;;;;;;10084066;29;20053;-84
2023/05/14 13:38:52;;;;;;;1.60;0.60;;;;;;;;;;10080151;29;20052;-84
2023/05/14 13:43:56;;;;;;;0.97;0.57;;;;;;;;;;10055012;29;20128;-84
2023/05/14 13:48:59;;;;;;;0.50;0.40;;;;;;;;;;10052948;29;20063;-84
2023/05/14 13:54:04;;;;;;;0.60;0.60;;;;;;;;;;10079437;29;20045;-84
2023/05/14 13:59:07;;;;;;;0.67;0.47;;;;;;;;;;10052195;29;20735;-84
2023/05/14 14:04:10;;;;;;;1.00;0.52;;;;;;;;;;10063527;29;20394;-83
2023/05/14 14:09:15;;;;;;;0.65;0.60;;;;;;;;;;10060629;29;20041;-84
2023/05/14 14:14:18;;;;;;;0.60;0.43;;;;;;;;;;10064535;29;20114;-85
2023/05/14 14:19:22;;;;;;;0.43;0.40;;;;;;;;;;10071886;29;20056;-85
2023/05/14 14:24:27;;;;;;;0.50;0.35;;;;;;;;;;10067113;29;20059;-84
2023/05/14 14:29:30;;;;;;;1.00;0.50;;;;;;;;;;10074269;29;20508;-85
2023/05/14 14:34:33;;;;;;;0.30;0.30;;;;;;;;;;10064621;29;22013;-84
2023/05/14 14:39:40;;;;;;;;;;;;;;;;;;10058505;29;20539;-85
2023/05/14 14:44:44;;;;;;;0.40;0.40;;;;;;;;;;10083475;29;20376;-84
2023/05/14 14:49:47;;;;;;;0.47;0.47;;;;;;;;;;10065165;29;20053;-84
2023/05/14 14:54:56;;;;;;;0.30;0.30;;;;;;;;;;10090707;29;20048;-84
2023/05/14 15:00:00;;;;;;;0.63;0.30;;;;;;;;;;10079389;29;20056;-83
2023/05/14 15:05:05;;;;;;;0.28;0.28;;;;;;;;;;10085818;29;20037;-84
2023/05/14 15:10:10;;;;;;;0.40;0.40;;;;;;;;;;10067686;29;20044;-84
2023/05/14 15:15:14;;;;;;;0.82;0.70;;;;;;;;;;10076251;29;20049;-84
2023/05/14 15:20:17;;;;;;;1.80;0.50;;;;;;;;;;10089384;29;20053;-84
2023/05/14 15:25:23;;;;;;;2.05;0.90;;;;;;;;;;10075666;29;20060;-84
2023/05/14 15:30:26;;;;;;;0.68;0.60;;;;;;;;;;10076837;29;20057;-84
2023/05/14 15:35:29;;;;;;;0.60;0.60;;;;;;;;;;10083547;29;20651;-84
2023/05/14 15:40:36;;;;;;;0.60;0.60;;;;;;;;;;10068397;29;20048;-85
2023/05/14 15:45:39;;;;;;;0.60;0.47;;;;;;;;;;10064828;29;20061;-83
2023/05/14 15:50:42;;;;;;;0.98;0.55;;;;;;;;;;10057219;29;20127;-84
2023/05/14 15:55:48;;;;;;;0.93;0.40;;;;;;;;;;10063936;29;20505;-83
2023/05/14 16:00:53;;;;;;;0.20;0.20;;;;;;;;;;10057277;29;20051;-82
2023/05/14 16:05:57;;;;;;;0.50;0.40;;;;;;;;;;10064669;29;20041;-84
2023/05/14 16:11:01;;;;;;;0.20;0.20;;;;;;;;;;10081677;29;20038;-84
2023/05/14 16:16:05;;;;;;;0.80;0.50;;;;;;;;;;10083550;29;20132;-84
2023/05/14 16:21:08;;;;;;;0.57;0.50;;;;;;;;;;10043560;29;20049;-83
2023/05/14 16:26:13;;;;;;;1.13;0.68;;;;;;;;;;10056421;29;20052;-83
2023/05/14 16:31:16;;;;;;;0.95;0.50;;;;;;;;;;10076535;29;20049;-83
2023/05/14 16:36:20;;;;;;;0.35;0.35;;;;;;;;;;10080288;29;20053;-83
2023/05/14 16:41:25;;;;;;;0.35;0.35;;;;;;;;;;10073292;29;20049;-83
2023/05/14 16:46:29;;;;;;;0.40;0.40;;;;;;;;;;10078033;29;20045;-83
2023/05/14 16:51:32;;;;;;;1.02;0.47;;;;;;;;;;10058498;29;20049;-83
2023/05/14 16:56:37;;;;;;;2.22;0.43;;;;;;;;;;10086469;29;20045;-83
2023/05/14 17:01:41;;;;;;;0.98;0.47;;;;;;;;;;10065439;29;20051;-83
2023/05/14 17:57:27;;;;;;;1.88;0.40;;;;;;;;;;11162663;23;20049;-87
2023/05/14 18:02:31;;;;;;;0.90;0.57;;;;;;;;;;10059844;29;20053;-87
2023/05/14 18:07:35;;;;;;;1.35;0.35;;;;;;;;;;10079624;29;20053;-88
2023/05/14 18:12:40;;;;;;;1.27;0.80;;;;;;;;;;10081437;29;20045;-87
2023/05/14 18:17:44;;;;;;;0.88;0.80;;;;;;;;;;10063688;29;20055;-87
2023/05/14 18:22:48;;;;;;;1.70;1.20;;;;;;;;;;10050418;29;20540;-84
2023/05/14 18:27:53;;;;;;;1.00;0.90;;;;;;;;;;10053990;29;20048;-85
2023/05/14 18:32:58;;;;;;;1.20;0.60;;;;;;;;;;10083291;29;20093;-85
2023/05/14 18:38:02;;;;;;;1.20;0.70;;;;;;;;;;10059470;29;20045;-85
2023/05/14 18:43:07;;;;;;;1.70;1.02;;;;;;;;;;10064199;29;20044;-84
2023/05/14 18:48:12;;;;;;;1.38;1.08;;;;;;;;;;10057640;29;20048;-85
2023/05/14 18:53:16;;;;;;;0.90;0.75;;;;;;;;;;10053782;29;20580;-84
2023/05/14 18:58:22;;;;;;;1.35;0.60;;;;;;;;;;10056173;29;20057;-85
2023/05/14 19:03:28;;;;;;;1.10;0.50;;;;;;;;;;10080123;29;20341;-85
2023/05/14 19:08:32;;;;;;;1.65;0.50;;;;;;;;;;10076493;29;20053;-88
2023/05/14 19:13:38;;;;;;;0.40;0.40;;;;;;;;;;10079889;29;20053;-87
2023/05/14 19:18:53;;;;;;;0.68;0.40;;;;;;;;;;10055729;29;20041;-88
2023/05/14 19:23:57;;;;;;;1.88;0.50;;;;;;;;;;10075327;29;20044;-87
2023/05/14 19:29:02;;;;;;;1.23;0.47;;;;;;;;;;10064616;29;20093;-85
2023/05/14 19:34:06;;;;;;;1.65;0.60;;;;;;;;;;10048567;29;20164;-86
2023/05/14 19:39:10;;;;;;;0.55;0.55;;;;;;;;;;10063433;29;20121;-87
2023/05/14 19:44:17;;;;;;;0.93;0.82;;;;;;;;;;10049045;29;20067;-87
2023/05/14 19:49:21;;;;;;;0.75;0.57;;;;;;;;;;10056181;29;20052;-87
2023/05/14 19:54:25;;;;;;;2.47;0.80;;;;;;;;;;10063780;29;20048;-87
2023/05/14 19:59:33;;;;;;;0.60;0.50;;;;;;;;;;10060646;29;20057;-87
2023/05/14 20:04:38;;;;;;;2.28;0.95;;;;;;;;;;10078855;29;20041;-86
2023/05/14 20:09:42;;;;;;;2.50;0.70;;;;;;;;;;10062443;29;20497;-87
2023/05/14 20:14:47;;;;;;;1.85;1.10;;;;;;;;;;10061178;29;20045;-87
2023/05/14 20:19:51;;;;;;;1.55;1.00;;;;;;;;;;10061498;29;20057;-87
2023/05/14 20:24:54;;;;;;;0.82;0.77;;;;;;;;;;10065386;29;20060;-87
2023/05/14 20:29:59;;;;;;;0.80;0.80;;;;;;;;;;10067829;29;20080;-87
2023/05/14 20:35:02;;;;;;;0.95;0.70;;;;;;;;;;10069066;29;20048;-87
2023/05/14 20:40:11;;;;;;;1.10;0.80;;;;;;;;;;10078603;29;20052;-87
2023/05/14 20:45:17;;;;;;;1.88;1.17;;;;;;;;;;10085580;29;20140;-87
2023/05/14 20:50:21;;;;;;;3.27;1.27;;;;;;;;;;10059130;29;20516;-87
2023/05/14 20:55:24;;;;;;;2.05;1.30;;;;;;;;;;10067330;29;20628;-87
2023/05/14 21:00:31;;;;;;;1.92;1.15;;;;;;;;;;10063266;29;20102;-87
2023/05/14 21:05:34;;;;;;;1.10;1.00;;;;;;;;;;10068287;29;20049;-88
2023/05/14 21:10:39;;;;;;;1.45;0.98;;;;;;;;;;10060386;29;20048;-87
2023/05/14 21:15:44;;;;;;;3.35;0.90;;;;;;;;;;10080431;29;20532;-87
2023/05/14 21:20:48;;;;;;;2.67;0.95;;;;;;;;;;10060347;29;20080;-87
2023/05/14 21:25:53;;;;;;;1.00;0.70;;;;;;;;;;10065703;29;20635;-87
2023/05/14 21:30:58;;;;;;;1.10;0.70;;;;;;;;;;10062806;29;20061;-88
2023/05/14 21:36:01;;;;;;;0.80;0.80;;;;;;;;;;10069118;29;20148;-88
2023/05/14 21:41:05;;;;;;;2.72;0.80;;;;;;;;;;10062843;29;20045;-90
2023/05/14 21:46:10;;;;;;;1.80;0.70;;;;;;;;;;10068921;29;20048;-90
2023/05/14 21:51:13;;;;;;;0.80;0.63;;;;;;;;;;10063747;29;20064;-87
2023/05/14 21:56:17;;;;;;;2.20;0.70;;;;;;;;;;10065061;29;20140;-88
2023/05/14 22:01:22;;;;;;;1.15;0.40;;;;;;;;;;10061809;29;20441;-89
2023/05/14 22:06:25;;;;;;;0.60;0.60;;;;;;;;;;10067978;29;20049;-89
2023/05/14 22:11:29;;;;;;;0.98;0.55;;;;;;;;;;10086460;29;20157;-89
2023/05/14 22:16:34;;;;;;;1.55;1.00;;;;;;;;;;10068119;29;20049;-89
2023/05/14 22:21:38;;;;;;;0.60;0.57;;;;;;;;;;10065700;29;20159;-88
2023/05/14 22:26:41;;;;;;;0.60;0.60;;;;;;;;;;10066727;29;20474;-88
2023/05/14 22:31:46;;;;;;;1.10;0.70;;;;;;;;;;10065030;29;20053;-88
2023/05/14 22:36:49;;;;;;;1.88;1.52;;;;;;;;;;10082018;29;20525;-88
2023/05/14 22:41:53;;;;;;;1.05;0.80;;;;;;;;;;10064679;29;20473;-88
2023/05/14 22:47:06;;;;;;;1.13;0.80;;;;;;;;;;10065962;29;20587;-87
2023/05/14 22:52:10;;;;;;;0.70;0.68;;;;;;;;;;10063875;29;20049;-89
2023/05/14 22:57:13;;;;;;;1.05;0.90;;;;;;;;;;10064970;29;20774;-89
2023/05/14 23:02:18;;;;;;;0.98;0.68;;;;;;;;;;10063862;29;20132;-87
2023/05/14 23:07:22;;;;;;;0.82;0.82;;;;;;;;;;10138521;23;20279;-81
2023/05/14 23:12:25;;;;;;;1.75;0.75;;;;;;;;;;10081765;29;20057;-81
2023/05/14 23:17:30;;;;;;;1.13;0.90;;;;;;;;;;10065849;29;20052;-83
2023/05/14 23:22:33;;;;;;;0.90;0.90;;;;;;;;;;10081692;29;20053;-81
2023/05/14 23:27:37;;;;;;;2.60;1.10;;;;;;;;;;10079067;29;20056;-82
2023/05/14 23:32:41;;;;;;;1.40;0.90;;;;;;;;;;10080417;29;20056;-81
2023/05/14 23:37:45;;;;;;;1.27;1.00;;;;;;;;;;10081414;29;20108;-81
2023/05/14 23:42:49;;;;;;;3.15;0.90;;;;;;;;;;10078722;29;20049;-81
2023/05/14 23:47:54;;;;;;;0.93;0.73;;;;;;;;;;10069188;29;20053;-82
2023/05/14 23:52:57;;;;;;;1.48;0.60;;;;;;;;;;10070661;29;20453;-82
2023/05/14 23:58:01;;;;;;;0.68;0.68;;;;;;;;;;10070080;29;20049;-82
